Main page
METAR-TAF:

METAR-TAF

Airports :

Bahrain, Bahrain

Bahrain International Airport

latitude: 26-16N, longitude: 050-39E, elevation: 2 m

Current weather observation

The report was made 7 minutes ago, at 20:30 UTC
Wind 13 kt from the Northwest
Temperature 31°C
Humidity 63%
Pressure 1001 hPa
Visibility 10 km or more
no clouds below 1500 m and no cumulonimbus

METAR: OBBI 232030Z 31013KT CAVOK 31/23 Q1001 NOSIG

Time: 23:37 (20:37 UTC)

Forecast

The report was made 3 hours and 37 minutes ago, at 17:00 UTC
Forecast valid from 23 at 18 UTC to 25 at 00 UTC
Wind 15 kt from the North/Northwest
Visibility 10 km or more
no clouds below 1500 m and no cumulonimbus
Becoming
from 24 at 03 UTC to 24 at 05 UTC
Wind 17 kt from the North/Northwest with gusts up to 27 kt
Becoming
from 24 at 15 UTC to 24 at 17 UTC
Wind 10 kt from the North/Northwest

TAF: OBBI 231700Z 2318/2500 33015KT CAVOK BECMG 2403/2405 33017G27KT BECMG 2415/2417 33010KT

Weather observations and forecasts of more than 4000 airports (METAR and TAF reports).

The available stations are represented by yellow and red dots on the map.

Hover mouse over dot to see the name of the station.

Then click to see weather observations and forecasts.

To change the map : click on the green buttons with a black cross to zoom in, on the green button with a dash to zoom out, or on the green arrows for adjacent maps.


METAR-TAF: